Terminal Aerodrome Forecast
Issued by NWS

Home | Current Version | Previous Version | Text Only | Print | Product List | Glossary On
Versions: 1 2 3 4 5 6 7 8 9 10 11 12 13 14 15 16 17 18 19 20
982
FTUS46 KSEW 191120
TAFBLI
TAF
KBLI 191120Z 1912/2012 14017G22KT P6SM OVC100
     FM191400 16020G30KT P6SM -RA SCT015 OVC040
     FM192000 16025G35KT 4SM -RA BR SCT008 BKN025 OVC035
     FM200200 17015G25KT 6SM -SHRA BKN015 OVC030
     FM200800 15007KT P6SM BKN025 OVC035=

USA.gov is the U.S. government's official web portal to all federal, state and local government web resources and services.